createdAt,value
2022-11-05T00:01:58.504Z,96975.16
2022-11-05T00:04:43.562Z,96976.94
2022-11-05T00:07:35.092Z,96980.59
2022-11-05T00:10:09.465Z,96986.81
2022-11-05T00:12:55.353Z,96985.13
2022-11-05T00:15:40.544Z,96988.72
2022-11-05T00:18:07.168Z,96986.44
2022-11-05T00:20:33.941Z,96995.94
2022-11-05T00:23:21.160Z,96995.81
2022-11-05T00:26:14.239Z,96995.00
2022-11-05T00:28:43.800Z,96986.31
2022-11-05T00:31:14.289Z,96986.44
2022-11-05T00:33:42.777Z,96982.13
2022-11-05T00:36:11.009Z,96989.03
2022-11-05T00:38:37.998Z,96989.88
2022-11-05T00:41:04.801Z,96985.81
2022-11-05T00:43:50.097Z,96983.47
2022-11-05T00:46:16.723Z,96973.31
2022-11-05T00:49:01.678Z,96980.38
2022-11-05T00:51:28.486Z,96972.50
2022-11-05T00:53:55.078Z,96977.38
2022-11-05T00:56:21.684Z,96972.97
2022-11-05T00:58:48.962Z,96978.44
2022-11-05T01:01:15.968Z,96972.97
2022-11-05T01:03:45.137Z,96971.09
2022-11-05T01:06:21.625Z,96966.06
2022-11-05T01:08:48.262Z,96972.50
2022-11-05T01:11:33.423Z,96966.50
2022-11-05T01:14:05.653Z,96970.84
2022-11-05T01:16:32.733Z,96969.03
2022-11-05T01:18:59.484Z,96974.91
2022-11-05T01:21:26.329Z,96981.13
2022-11-05T01:23:53.795Z,96978.34
2022-11-05T01:26:20.360Z,96975.75
2022-11-05T01:28:54.816Z,96970.03
2022-11-05T01:31:22.306Z,96964.00
2022-11-05T01:33:49.838Z,96960.41
2022-11-05T01:36:17.431Z,96962.91
2022-11-05T01:38:44.400Z,96950.66
2022-11-05T01:41:11.247Z,96953.28
2022-11-05T01:43:56.570Z,96953.66
2022-11-05T01:46:29.334Z,96964.75
2022-11-05T01:49:03.158Z,96955.28
2022-11-05T01:51:30.913Z,96949.78
2022-11-05T01:54:01.706Z,96951.69
2022-11-05T01:56:39.645Z,96953.38
2022-11-05T01:59:38.716Z,96953.50
2022-11-05T02:02:07.915Z,96948.25
2022-11-05T02:04:43.018Z,96949.38
2022-11-05T02:07:11.439Z,96952.72
2022-11-05T02:09:52.143Z,96946.00
2022-11-05T02:12:19.747Z,96957.53
2022-11-05T02:14:46.407Z,96956.63
2022-11-05T02:17:54.166Z,96954.91
2022-11-05T02:20:51.825Z,96950.88
2022-11-05T02:23:36.934Z,96948.34
2022-11-05T02:26:22.400Z,96956.09
2022-11-05T02:29:10.707Z,96947.38
2022-11-05T02:31:49.331Z,96944.03
2022-11-05T02:34:27.879Z,96940.25
2022-11-05T02:37:00.474Z,96943.97
2022-11-05T02:39:52.889Z,96938.28
2022-11-05T02:42:42.473Z,96948.84
2022-11-05T02:45:15.118Z,96951.25
2022-11-05T02:47:45.457Z,96959.88
2022-11-05T02:50:27.071Z,96962.50
2022-11-05T02:53:02.262Z,96954.75
2022-11-05T02:55:37.089Z,96955.53
2022-11-05T02:58:07.463Z,96955.44
2022-11-05T03:00:49.450Z,96954.63
2022-11-05T03:03:18.718Z,96952.84
2022-11-05T03:06:23.731Z,96955.44
2022-11-05T03:09:01.594Z,96948.56
2022-11-05T03:11:31.641Z,96948.69
2022-11-05T03:14:10.382Z,96944.88
2022-11-05T03:16:44.063Z,96945.00
2022-11-05T03:19:25.867Z,96943.50
2022-11-05T03:22:05.703Z,96944.47
2022-11-05T03:24:39.211Z,96940.78
2022-11-05T03:27:27.390Z,96946.94
2022-11-05T03:30:01.181Z,96949.56
2022-11-05T03:32:30.806Z,96941.63
2022-11-05T03:35:02.318Z,96936.69
2022-11-05T03:37:35.317Z,96940.50
2022-11-05T03:40:06.290Z,96935.22
2022-11-05T03:42:36.514Z,96934.09
2022-11-05T03:45:14.304Z,96939.34
2022-11-05T03:47:44.332Z,96936.91
2022-11-05T03:50:23.194Z,96932.47
2022-11-05T03:52:55.270Z,96942.78
2022-11-05T03:55:33.047Z,96948.84
2022-11-05T03:57:59.830Z,96956.41
2022-11-05T04:00:26.478Z,96954.69
2022-11-05T04:02:53.292Z,96953.03
2022-11-05T04:05:19.932Z,96938.97
2022-11-05T04:08:08.713Z,96942.38
2022-11-05T04:10:56.241Z,96946.47
2022-11-05T04:13:25.529Z,96948.00
2022-11-05T04:16:15.167Z,96941.19
2022-11-05T04:18:42.533Z,96953.19
2022-11-05T04:21:29.539Z,96948.41
2022-11-05T04:24:08.641Z,96945.78
2022-11-05T04:26:44.631Z,96946.69
2022-11-05T04:29:29.818Z,96942.13
2022-11-05T04:31:57.181Z,96939.44
2022-11-05T04:34:24.228Z,96936.72
2022-11-05T04:36:53.249Z,96947.25
2022-11-05T04:39:20.878Z,96936.59
2022-11-05T04:41:48.822Z,96953.03
2022-11-05T04:44:16.853Z,96949.53
2022-11-05T04:46:43.811Z,96958.31
2022-11-05T04:49:10.385Z,96959.00
2022-11-05T04:51:37.068Z,96958.13
2022-11-05T04:54:03.819Z,96960.72
2022-11-05T04:56:30.427Z,96954.53
2022-11-05T04:58:57.048Z,96958.22
2022-11-05T05:01:25.460Z,96966.00
2022-11-05T05:03:54.053Z,96966.72
2022-11-05T05:06:21.733Z,96967.44
2022-11-05T05:08:50.051Z,96962.97
2022-11-05T05:11:19.029Z,96972.56
2022-11-05T05:13:45.745Z,96984.75
2022-11-05T05:16:25.706Z,96969.00
2022-11-05T05:18:53.217Z,96978.56
2022-11-05T05:21:41.089Z,96974.97
2022-11-05T05:24:11.365Z,96977.28
2022-11-05T05:26:39.556Z,96965.78
2022-11-05T05:29:06.915Z,96968.53
2022-11-05T05:31:34.011Z,96968.69
2022-11-05T05:34:00.671Z,96965.34
2022-11-05T05:36:27.358Z,96966.94
2022-11-05T05:38:53.977Z,96971.50
2022-11-05T05:41:20.700Z,96977.59
2022-11-05T05:43:47.694Z,96982.69
2022-11-05T05:46:16.548Z,96982.63
2022-11-05T05:48:43.967Z,96979.03
2022-11-05T05:51:11.856Z,96986.59
2022-11-05T05:53:38.824Z,97002.09
2022-11-05T05:56:06.787Z,96998.31
2022-11-05T05:58:36.380Z,97007.88
2022-11-05T06:01:09.593Z,97005.38
2022-11-05T06:03:37.730Z,97009.78
2022-11-05T06:06:14.981Z,96998.19
2022-11-05T06:08:45.475Z,97003.25
2022-11-05T06:11:12.105Z,97012.66
2022-11-05T06:13:38.770Z,97005.50
2022-11-05T06:16:10.040Z,97005.63
2022-11-05T06:18:37.423Z,97013.31
2022-11-05T06:21:06.929Z,97012.25
2022-11-05T06:23:34.886Z,97015.44
2022-11-05T06:26:07.126Z,97021.03
2022-11-05T06:28:34.588Z,97024.25
2022-11-05T06:31:01.847Z,97012.50
2022-11-05T06:33:29.274Z,97022.50
2022-11-05T06:35:59.435Z,97032.72
2022-11-05T06:38:26.036Z,97038.72
2022-11-05T06:40:52.717Z,97032.31
2022-11-05T06:43:19.340Z,97032.94
2022-11-05T06:45:45.889Z,97037.00
2022-11-05T06:48:12.534Z,97046.91
2022-11-05T06:50:39.173Z,97052.91
2022-11-05T06:53:06.231Z,97036.97
2022-11-05T06:55:32.983Z,97048.03
2022-11-05T06:57:59.623Z,97039.78
2022-11-05T07:00:26.511Z,97032.81
2022-11-05T07:02:53.223Z,97033.88
2022-11-05T07:05:19.802Z,97033.69
2022-11-05T07:07:46.442Z,97023.56
2022-11-05T07:10:16.325Z,97020.94
2022-11-05T07:12:43.666Z,97027.78
2022-11-05T07:15:12.441Z,97024.66
2022-11-05T07:17:40.212Z,97028.16
2022-11-05T07:20:08.318Z,97036.19
2022-11-05T07:22:35.621Z,97034.41
2022-11-05T07:25:02.560Z,97041.34
2022-11-05T07:27:29.570Z,97041.03
2022-11-05T07:29:56.189Z,97037.19
2022-11-05T07:32:22.878Z,97027.84
2022-11-05T07:34:49.727Z,97029.44
2022-11-05T07:37:28.913Z,97037.06
2022-11-05T07:45:28.254Z,97024.84
2022-11-05T07:48:00.738Z,97022.97
2022-11-05T07:50:30.175Z,97020.16
2022-11-05T07:53:04.465Z,97013.06
2022-11-05T07:55:31.274Z,97017.50
2022-11-05T07:57:58.596Z,97020.81
2022-11-05T08:00:27.047Z,97018.63
2022-11-05T08:03:07.166Z,97018.41
2022-11-05T08:05:37.087Z,97016.38
2022-11-05T08:08:04.386Z,97030.88
2022-11-05T08:10:31.138Z,97028.59
2022-11-05T08:12:57.864Z,97018.66
2022-11-05T08:15:24.572Z,97027.47
2022-11-05T08:17:58.661Z,97027.47
2022-11-05T08:20:26.439Z,97021.34
2022-11-05T08:22:53.730Z,97019.22
2022-11-05T08:25:20.611Z,97023.09
2022-11-05T08:27:47.344Z,97017.16
2022-11-05T08:30:14.220Z,97025.66
2022-11-05T08:32:40.909Z,97030.09
2022-11-05T08:35:07.895Z,97026.59
2022-11-05T08:37:34.538Z,97024.69
2022-11-05T08:40:01.199Z,97033.81
2022-11-05T08:42:27.764Z,97034.59
2022-11-05T08:44:55.089Z,97035.72
2022-11-05T08:47:21.835Z,97039.38
2022-11-05T08:49:48.566Z,97026.00
2022-11-05T08:52:15.312Z,97021.28
2022-11-05T08:54:43.202Z,97019.25
2022-11-05T08:57:09.853Z,97024.59
2022-11-05T08:59:36.480Z,97026.41
2022-11-05T09:02:03.201Z,97027.56
2022-11-05T09:04:30.538Z,97030.63
2022-11-05T09:06:57.180Z,97027.22
2022-11-05T09:09:23.806Z,97020.91
2022-11-05T09:12:11.027Z,97025.31
2022-11-05T09:14:37.168Z,97018.75
2022-11-05T09:17:03.818Z,97021.59
2022-11-05T09:19:30.357Z,97019.44
2022-11-05T09:21:59.479Z,97019.63
2022-11-05T09:24:26.166Z,97021.03
2022-11-05T09:26:52.832Z,97021.97
2022-11-05T09:29:19.465Z,97019.16
2022-11-05T09:31:46.075Z,97019.72
2022-11-05T09:34:12.674Z,97021.16
2022-11-05T09:36:39.407Z,97020.03
2022-11-05T09:39:06.188Z,97017.03
2022-11-05T09:41:37.637Z,97012.31
2022-11-05T09:44:20.045Z,97009.44
2022-11-05T09:46:51.253Z,97009.25
2022-11-05T09:49:29.549Z,97016.47
2022-11-05T09:51:58.336Z,97011.84
2022-11-05T09:54:28.588Z,97005.97
2022-11-05T09:56:55.862Z,97008.22
2022-11-05T09:59:27.583Z,96999.00
2022-11-05T10:02:13.585Z,96995.44
2022-11-05T10:04:49.266Z,96996.63
2022-11-05T10:07:23.207Z,97001.22
2022-11-05T10:10:00.495Z,96995.19
2022-11-05T10:12:53.460Z,96994.75
2022-11-05T10:15:32.428Z,96987.88
2022-11-05T10:18:16.947Z,96987.16
2022-11-05T10:20:44.761Z,96987.16
2022-11-05T10:23:17.207Z,96981.78
2022-11-05T10:26:06.338Z,96988.00
2022-11-05T10:28:34.457Z,96978.88
2022-11-05T10:31:06.798Z,96976.22
2022-11-05T10:33:45.359Z,96965.81
2022-11-05T10:36:24.669Z,96975.38
2022-11-05T10:38:55.854Z,96983.03
2022-11-05T10:41:44.113Z,96981.03
2022-11-05T10:44:28.248Z,96978.34
2022-11-05T10:47:17.044Z,96979.09
2022-11-05T10:50:08.761Z,96975.59
2022-11-05T10:52:38.497Z,96981.53
2022-11-05T10:55:21.488Z,96978.66
2022-11-05T10:57:49.996Z,96978.13
2022-11-05T11:00:16.729Z,96975.88
2022-11-05T11:02:47.700Z,96975.47
2022-11-05T11:05:25.158Z,96969.94
2022-11-05T11:08:08.948Z,96964.06
2022-11-05T11:10:59.006Z,96969.75
2022-11-05T11:13:28.925Z,96963.25
2022-11-05T11:16:14.824Z,96956.16
2022-11-05T11:18:43.425Z,96966.28
2022-11-05T11:21:26.289Z,96964.53
2022-11-05T11:24:04.012Z,96963.22
2022-11-05T11:26:40.316Z,96960.31
2022-11-05T11:29:26.991Z,96957.34
2022-11-05T11:31:57.355Z,96957.38
2022-11-05T11:34:29.501Z,96960.41
2022-11-05T11:37:03.849Z,96957.50
2022-11-05T11:39:31.128Z,96951.34
2022-11-05T11:42:00.441Z,96958.25
2022-11-05T11:44:29.661Z,96943.13
2022-11-05T11:47:02.082Z,96945.09
2022-11-05T11:49:46.636Z,96943.97
2022-11-05T11:52:14.590Z,96941.31
2022-11-05T11:54:41.597Z,96938.97
2022-11-05T11:57:21.844Z,96941.63
2022-11-05T12:00:07.876Z,96943.94
2022-11-05T12:02:44.399Z,96939.69
2022-11-05T12:05:10.971Z,96948.50
2022-11-05T12:07:58.174Z,96946.59
2022-11-05T12:10:31.478Z,96950.69
2022-11-05T12:13:21.137Z,96949.84
2022-11-05T12:15:55.394Z,96952.41
2022-11-05T12:18:21.806Z,96954.72
2022-11-05T12:21:02.751Z,96949.25
2022-11-05T12:23:29.257Z,96954.81
2022-11-05T12:26:22.027Z,96951.41
2022-11-05T12:29:19.167Z,96952.25
2022-11-05T12:32:02.436Z,96955.56
2022-11-05T12:34:37.224Z,96953.63
2022-11-05T12:37:30.413Z,96961.09
2022-11-05T12:40:09.484Z,96955.44
2022-11-05T12:42:38.945Z,96953.09
2022-11-05T12:45:15.841Z,96958.56
2022-11-05T12:47:45.271Z,96954.56
2022-11-05T12:50:15.184Z,96953.97
2022-11-05T12:52:54.064Z,96960.16
2022-11-05T12:55:24.316Z,96952.53
2022-11-05T12:57:55.823Z,96952.66
2022-11-05T13:00:24.034Z,96952.28
2022-11-05T13:02:56.740Z,96950.72
2022-11-05T13:05:26.092Z,96953.84
2022-11-05T13:07:56.764Z,96955.06
2022-11-05T13:10:40.618Z,96949.28
2022-11-05T13:13:21.698Z,96953.84
2022-11-05T13:15:54.832Z,96951.09
2022-11-05T13:18:28.313Z,96957.25
2022-11-05T13:20:56.710Z,96955.53
2022-11-05T13:23:24.356Z,96953.50
2022-11-05T13:25:53.601Z,96953.88
2022-11-05T13:28:38.985Z,96954.94
2022-11-05T13:31:10.730Z,96949.56
2022-11-05T13:33:40.180Z,96953.53
2022-11-05T13:36:29.182Z,96955.09
2022-11-05T13:39:13.724Z,96957.50
2022-11-05T13:41:58.649Z,96959.56
2022-11-05T13:47:47.263Z,96962.09
2022-11-05T13:50:34.316Z,96965.09
2022-11-05T13:53:19.860Z,96964.63
2022-11-05T13:56:18.535Z,96972.09
2022-11-05T13:58:57.051Z,96961.50
2022-11-05T14:01:29.403Z,96970.47
2022-11-05T14:03:56.619Z,96967.28
2022-11-05T14:06:31.239Z,96967.63
2022-11-05T14:09:04.310Z,96974.78
2022-11-05T14:11:33.365Z,96974.78
2022-11-05T14:14:02.798Z,96981.53
2022-11-05T14:16:43.895Z,96975.94
2022-11-05T14:19:22.403Z,96981.69
2022-11-05T14:21:55.985Z,96980.31
2022-11-05T14:24:22.768Z,96980.66
2022-11-05T14:27:04.581Z,96979.19
2022-11-05T14:29:43.210Z,96984.13
2022-11-05T14:32:21.818Z,96983.88
2022-11-05T14:34:56.000Z,96986.44
2022-11-05T14:37:24.222Z,96989.00
2022-11-05T14:39:51.266Z,96997.31
2022-11-05T14:42:22.546Z,96989.84
2022-11-05T14:48:12.147Z,96998.53
2022-11-05T14:50:45.332Z,96994.69
2022-11-05T14:53:33.314Z,96997.34
2022-11-05T14:56:02.717Z,96995.44
2022-11-05T14:58:35.580Z,96992.16
2022-11-05T15:01:09.012Z,97001.31
2022-11-05T15:03:46.781Z,97002.69
2022-11-05T15:06:20.743Z,96998.00
2022-11-05T15:08:50.234Z,96995.13
2022-11-05T15:11:36.962Z,96994.38
2022-11-05T15:14:12.971Z,96997.38
2022-11-05T15:16:43.587Z,97005.34
2022-11-05T15:19:18.286Z,97000.56
2022-11-05T15:21:47.883Z,97009.03
2022-11-05T15:24:16.194Z,97001.16
2022-11-05T15:27:06.322Z,97003.28
2022-11-05T15:29:33.293Z,97003.59
2022-11-05T15:32:03.064Z,97001.25
2022-11-05T15:34:32.938Z,97005.94
2022-11-05T15:37:10.330Z,97004.22
2022-11-05T15:39:41.101Z,97000.63
2022-11-05T15:42:28.022Z,97002.09
2022-11-05T15:44:58.342Z,97006.84
2022-11-05T15:47:28.736Z,97002.19
2022-11-05T15:49:59.880Z,97003.06
2022-11-05T15:55:25.527Z,97000.72
2022-11-05T15:58:04.852Z,97007.34
2022-11-05T16:00:42.882Z,97011.03
2022-11-05T16:03:18.553Z,97013.94
2022-11-05T16:05:47.831Z,97007.22
2022-11-05T16:08:16.765Z,97012.84
2022-11-05T16:10:46.445Z,97012.09
2022-11-05T16:13:40.200Z,97023.19
2022-11-05T16:16:21.973Z,97024.56
2022-11-05T16:18:50.679Z,97024.63
2022-11-05T16:21:19.000Z,97017.19
2022-11-05T16:23:53.665Z,97030.53
2022-11-05T16:30:01.336Z,97026.03
2022-11-05T16:32:33.729Z,97027.53
2022-11-05T16:35:05.335Z,97030.19
2022-11-05T16:37:38.266Z,97034.06
2022-11-05T16:40:19.062Z,97031.53
2022-11-05T16:42:51.448Z,97032.50
2022-11-05T16:45:24.457Z,97034.19
2022-11-05T16:47:52.010Z,97039.69
2022-11-05T16:50:31.619Z,97047.09
2022-11-05T16:53:00.859Z,97051.72
2022-11-05T16:55:27.566Z,97043.97
2022-11-05T16:57:57.229Z,97052.00
2022-11-05T17:00:25.148Z,97054.31
2022-11-05T17:02:56.127Z,97046.63
2022-11-05T17:05:30.488Z,97055.53
2022-11-05T17:07:59.576Z,97049.47
2022-11-05T17:10:27.112Z,97054.09
2022-11-05T17:12:53.995Z,97056.88
2022-11-05T17:15:28.319Z,97060.00
2022-11-05T17:17:55.746Z,97062.53
2022-11-05T17:20:35.129Z,97061.56
2022-11-05T17:23:06.639Z,97063.75
2022-11-05T17:25:34.329Z,97066.31
2022-11-05T17:28:01.028Z,97070.38
2022-11-05T17:30:27.676Z,97070.53
2022-11-05T17:32:58.677Z,97067.91
2022-11-05T17:35:25.318Z,97071.13
2022-11-05T17:37:51.945Z,97070.19
2022-11-05T17:40:22.433Z,97066.41
2022-11-05T17:42:50.306Z,97079.94
2022-11-05T17:45:17.782Z,97080.88
2022-11-05T17:47:44.975Z,97079.19
2022-11-05T17:50:15.633Z,97079.56
2022-11-05T17:52:42.753Z,97079.56
2022-11-05T17:55:16.722Z,97083.88
2022-11-05T17:57:45.806Z,97081.34
2022-11-05T18:00:14.188Z,97091.72
2022-11-05T18:02:40.931Z,97091.66
2022-11-05T18:05:08.203Z,97101.09
2022-11-05T18:07:34.803Z,97098.56
2022-11-05T18:10:01.580Z,97108.03
2022-11-05T18:12:28.170Z,97110.97
2022-11-05T18:14:54.809Z,97114.81
2022-11-05T18:17:27.774Z,97112.00
2022-11-05T18:20:02.606Z,97115.13
2022-11-05T18:22:29.722Z,97114.75
2022-11-05T18:24:56.427Z,97119.66
2022-11-05T18:27:27.809Z,97117.66
2022-11-05T18:29:54.972Z,97128.53
2022-11-05T18:32:21.680Z,97128.38
2022-11-05T18:34:48.451Z,97137.53
2022-11-05T18:37:17.551Z,97129.31
2022-11-05T18:39:51.542Z,97134.69
2022-11-05T18:42:19.629Z,97122.88
2022-11-05T18:44:49.469Z,97138.94
2022-11-05T18:47:19.394Z,97131.19
2022-11-05T18:49:46.338Z,97147.09
2022-11-05T18:52:13.312Z,97147.72
2022-11-05T18:54:39.950Z,97149.88
2022-11-05T18:57:08.888Z,97151.94
2022-11-05T18:59:38.841Z,97155.44
2022-11-05T19:02:08.165Z,97153.63
2022-11-05T19:04:36.682Z,97159.72
2022-11-05T19:07:11.562Z,97166.78
2022-11-05T19:09:39.566Z,97167.38
2022-11-05T19:12:07.473Z,97174.81
2022-11-05T19:14:35.419Z,97180.28
2022-11-05T19:17:03.033Z,97180.56
2022-11-05T19:19:29.829Z,97183.44
2022-11-05T19:21:59.127Z,97184.84
2022-11-05T19:24:28.419Z,97196.25
2022-11-05T19:26:58.269Z,97184.16
2022-11-05T19:29:25.205Z,97195.66
2022-11-05T19:31:51.908Z,97190.34
2022-11-05T19:34:21.988Z,97193.22
2022-11-05T19:36:48.798Z,97199.25
2022-11-05T19:39:15.559Z,97196.03
2022-11-05T19:41:45.572Z,97193.72
2022-11-05T19:44:15.612Z,97210.53
2022-11-05T19:46:44.008Z,97201.66
2022-11-05T19:49:14.015Z,97210.00
2022-11-05T19:51:42.924Z,97212.19
2022-11-05T19:54:11.808Z,97210.25
2022-11-05T19:56:38.652Z,97207.53
2022-11-05T19:59:07.877Z,97209.13
2022-11-05T20:01:38.760Z,97208.22
2022-11-05T20:04:05.936Z,97209.91
2022-11-05T20:06:38.828Z,97209.13
2022-11-05T20:09:27.430Z,97210.94
2022-11-05T20:11:56.479Z,97209.66
2022-11-05T20:14:29.781Z,97204.28
2022-11-05T20:16:58.861Z,97214.47
2022-11-05T20:19:25.679Z,97215.97
2022-11-05T20:21:52.456Z,97225.53
2022-11-05T20:24:25.085Z,97229.72
2022-11-05T20:26:56.148Z,97222.03
2022-11-05T20:29:30.491Z,97234.78
2022-11-05T20:32:03.785Z,97236.31
2022-11-05T20:34:34.668Z,97238.44
2022-11-05T20:37:04.820Z,97237.84
2022-11-05T20:39:34.091Z,97232.47
2022-11-05T20:42:03.419Z,97242.56
2022-11-05T20:44:30.319Z,97236.06
2022-11-05T20:47:00.470Z,97235.00
2022-11-05T20:49:30.036Z,97238.19
2022-11-05T20:51:59.542Z,97246.63
2022-11-05T20:54:26.537Z,97247.41
2022-11-05T20:56:53.332Z,97238.38
2022-11-05T20:59:47.327Z,97245.47
2022-11-05T21:02:17.595Z,97243.66
2022-11-05T21:04:50.630Z,97232.94
2022-11-05T21:07:20.382Z,97244.78
2022-11-05T21:09:49.813Z,97234.13
2022-11-05T21:12:18.355Z,97237.38
2022-11-05T21:14:45.291Z,97238.28
2022-11-05T21:17:14.868Z,97241.81
2022-11-05T21:19:44.173Z,97248.69
2022-11-05T21:22:17.785Z,97248.31
2022-11-05T21:24:44.458Z,97247.31
2022-11-05T21:27:14.073Z,97250.28
2022-11-05T21:29:42.930Z,97244.56
2022-11-05T21:32:10.091Z,97246.19
2022-11-05T21:34:39.337Z,97252.06
2022-11-05T21:37:06.238Z,97253.88
2022-11-05T21:39:35.513Z,97250.28
2022-11-05T21:42:02.159Z,97250.47
2022-11-05T21:44:28.762Z,97255.97
2022-11-05T21:47:03.127Z,97248.47
2022-11-05T21:49:37.159Z,97255.41
2022-11-05T21:52:22.662Z,97243.03
2022-11-05T21:55:11.056Z,97243.47
2022-11-05T21:57:56.368Z,97248.00
2022-11-05T22:00:24.867Z,97246.00
2022-11-05T22:02:54.041Z,97258.59
2022-11-05T22:05:20.770Z,97255.16
2022-11-05T22:07:49.479Z,97256.13
2022-11-05T22:10:19.199Z,97259.06
2022-11-05T22:12:48.225Z,97265.31
2022-11-05T22:15:17.978Z,97262.81
2022-11-05T22:17:47.162Z,97268.41
2022-11-05T22:20:14.269Z,97267.63
2022-11-05T22:22:40.899Z,97271.19
2022-11-05T22:25:07.859Z,97269.72
2022-11-05T22:27:36.679Z,97263.59
2022-11-05T22:30:08.264Z,97272.59
2022-11-05T22:32:39.037Z,97268.88
2022-11-05T22:35:07.713Z,97271.19
2022-11-05T22:37:34.401Z,97278.13
2022-11-05T22:40:01.067Z,97274.38
2022-11-05T22:42:27.849Z,97277.97
2022-11-05T22:44:58.937Z,97276.25
2022-11-05T22:47:28.608Z,97282.38
2022-11-05T22:49:58.104Z,97286.50
2022-11-05T22:52:26.996Z,97291.22
2022-11-05T22:54:53.607Z,97287.03
2022-11-05T22:57:20.264Z,97281.47
2022-11-05T22:59:47.381Z,97278.28
2022-11-05T23:02:16.100Z,97275.53
2022-11-05T23:04:45.384Z,97277.56
2022-11-05T23:07:35.975Z,97277.88
2022-11-05T23:10:21.209Z,97270.81
2022-11-05T23:12:50.719Z,97291.34
2022-11-05T23:15:37.740Z,97288.88
2022-11-05T23:18:28.529Z,97292.03
2022-11-05T23:21:13.732Z,97288.78
2022-11-05T23:23:58.603Z,97301.16
2022-11-05T23:26:44.800Z,97302.28
2022-11-05T23:29:13.654Z,97297.84
2022-11-05T23:31:58.965Z,97295.31
2022-11-05T23:34:25.690Z,97300.75
2022-11-05T23:37:11.184Z,97294.38
2022-11-05T23:39:42.462Z,97298.94
2022-11-05T23:42:31.097Z,97296.22
2022-11-05T23:45:18.996Z,97302.28
2022-11-05T23:48:05.622Z,97296.16
2022-11-05T23:50:39.946Z,97307.72
2022-11-05T23:53:09.434Z,97304.53
2022-11-05T23:55:36.449Z,97309.72
2022-11-05T23:58:03.220Z,97316.78
